createdAt,value
2019-03-12T00:01:57.218Z,10.27
2019-03-12T00:04:45.616Z,10.22
2019-03-12T00:07:36.099Z,10.23
2019-03-12T00:10:25.826Z,10.18
2019-03-12T00:13:14.705Z,10.19
2019-03-12T00:16:04.576Z,10.11
2019-03-12T00:19:10.936Z,10.11
2019-03-12T00:22:02.277Z,10.01
2019-03-12T00:24:50.284Z,9.97
2019-03-12T00:27:38.214Z,9.94
2019-03-12T00:30:28.902Z,10.08
2019-03-12T00:33:18.104Z,9.92
2019-03-12T00:36:08.618Z,9.80
2019-03-12T00:38:57.734Z,9.73
2019-03-12T00:41:48.807Z,9.36
2019-03-12T00:44:37.011Z,9.12
2019-03-12T00:47:25.381Z,8.96
2019-03-12T00:50:16.803Z,8.84
2019-03-12T00:53:08.330Z,8.74
2019-03-12T00:55:56.570Z,8.54
2019-03-12T00:58:45.271Z,8.33
2019-03-12T01:01:33.824Z,8.22
2019-03-12T01:04:22.538Z,8.21
2019-03-12T01:07:12.676Z,8.15
2019-03-12T01:10:03.852Z,7.99
2019-03-12T01:12:52.335Z,7.67
2019-03-12T01:15:41.280Z,7.61
2019-03-12T01:18:30.410Z,7.54
2019-03-12T01:21:18.642Z,7.49
2019-03-12T01:24:06.854Z,7.68
2019-03-12T01:26:55.600Z,7.50
2019-03-12T01:29:45.532Z,7.41
2019-03-12T01:32:34.219Z,7.34
2019-03-12T01:35:21.858Z,7.20
2019-03-12T01:38:13.823Z,6.89
2019-03-12T01:41:01.929Z,7.04
2019-03-12T01:43:50.038Z,6.99
2019-03-12T01:46:38.246Z,6.95
2019-03-12T01:49:26.656Z,6.80
2019-03-12T01:52:14.796Z,6.57
2019-03-12T01:55:02.895Z,6.39
2019-03-12T01:57:51.324Z,6.32
2019-03-12T02:00:39.958Z,6.15
2019-03-12T02:03:28.280Z,6.31
2019-03-12T02:06:16.670Z,6.23
2019-03-12T02:09:05.191Z,6.17
2019-03-12T02:11:53.850Z,6.09
2019-03-12T02:14:41.881Z,5.92
2019-03-12T02:17:30.340Z,5.82
2019-03-12T02:20:18.302Z,5.70
2019-03-12T02:23:06.824Z,5.60
2019-03-12T02:25:55.507Z,5.58
2019-03-12T02:28:43.454Z,5.59
2019-03-12T02:31:31.844Z,5.51
2019-03-12T02:34:20.734Z,5.54
2019-03-12T02:37:09.218Z,5.54
2019-03-12T02:39:57.176Z,5.55
2019-03-12T02:42:45.119Z,5.36
2019-03-12T02:45:32.996Z,5.25
2019-03-12T02:48:21.600Z,5.25
2019-03-12T02:51:09.922Z,5.36
2019-03-12T02:53:58.347Z,5.18
2019-03-12T02:56:46.745Z,5.25
2019-03-12T02:59:35.185Z,5.47
2019-03-12T03:02:23.773Z,5.41
2019-03-12T03:05:12.110Z,5.13
2019-03-12T03:08:06.235Z,5.12
2019-03-12T03:10:54.620Z,5.07
2019-03-12T03:13:43.030Z,4.98
2019-03-12T03:16:31.396Z,4.82
2019-03-12T03:19:19.323Z,4.91
2019-03-12T03:22:07.671Z,4.78
2019-03-12T03:24:55.365Z,4.51
2019-03-12T03:27:43.764Z,4.37
2019-03-12T03:30:32.379Z,4.29
2019-03-12T03:33:20.409Z,4.44
2019-03-12T03:36:09.628Z,4.24
2019-03-12T03:38:57.297Z,4.19
2019-03-12T03:41:45.362Z,4.12
2019-03-12T03:44:33.090Z,3.88
2019-03-12T03:47:20.866Z,3.91
2019-03-12T03:50:09.430Z,3.68
2019-03-12T03:52:57.844Z,3.65
2019-03-12T03:55:46.146Z,3.70
2019-03-12T03:58:34.442Z,3.63
2019-03-12T04:01:22.797Z,3.59
2019-03-12T04:04:11.150Z,3.50
2019-03-12T04:06:59.459Z,3.61
2019-03-12T04:09:47.765Z,3.53
2019-03-12T04:12:36.118Z,3.54
2019-03-12T04:15:24.080Z,3.63
2019-03-12T04:18:11.840Z,3.74
2019-03-12T04:21:00.306Z,3.83
2019-03-12T04:23:48.019Z,3.81
2019-03-12T04:26:36.401Z,3.80
2019-03-12T04:29:24.843Z,3.65
2019-03-12T04:32:13.463Z,3.50
2019-03-12T04:35:01.829Z,3.42
2019-03-12T04:37:50.099Z,3.18
2019-03-12T04:40:38.441Z,2.87
2019-03-12T04:43:26.932Z,2.61
2019-03-12T04:46:15.338Z,2.52
2019-03-12T04:49:04.222Z,2.52
2019-03-12T04:51:52.239Z,2.18
2019-03-12T04:54:40.257Z,1.96
2019-03-12T04:57:28.738Z,1.85
2019-03-12T05:00:17.084Z,1.76
2019-03-12T05:03:05.162Z,1.70
2019-03-12T05:05:53.631Z,1.81
2019-03-12T05:08:42.237Z,1.73
2019-03-12T05:11:30.298Z,1.65
2019-03-12T05:14:49.426Z,1.64
2019-03-12T05:17:37.273Z,1.69
2019-03-12T05:20:25.627Z,1.85
2019-03-12T05:23:14.043Z,1.80
2019-03-12T05:26:02.081Z,1.84
2019-03-12T05:28:53.948Z,1.87
2019-03-12T05:31:42.123Z,2.05
2019-03-12T05:34:30.638Z,2.20
2019-03-12T05:37:19.081Z,2.22
2019-03-12T05:40:08.768Z,2.22
2019-03-12T05:45:17.830Z,2.42
2019-03-12T05:48:05.856Z,2.37
2019-03-12T05:50:53.844Z,2.47
2019-03-12T05:53:51.034Z,2.60
2019-03-12T05:56:38.760Z,2.43
2019-03-12T05:59:27.297Z,2.56
2019-03-12T06:02:16.120Z,2.60
2019-03-12T06:05:04.203Z,2.72
2019-03-12T06:07:55.352Z,2.76
2019-03-12T06:10:41.943Z,2.75
2019-03-12T06:13:30.169Z,2.87
2019-03-12T06:16:18.515Z,3.07
2019-03-12T06:19:06.982Z,3.14
2019-03-12T06:21:55.341Z,3.01
2019-03-12T06:24:43.986Z,3.00
2019-03-12T06:27:32.006Z,2.92
2019-03-12T06:30:20.463Z,2.77
2019-03-12T06:33:16.028Z,2.65
2019-03-12T06:36:17.152Z,2.55
2019-03-12T06:39:25.206Z,2.48
2019-03-12T06:42:34.159Z,2.26
2019-03-12T06:45:43.361Z,2.25
2019-03-12T06:48:53.922Z,2.19
2019-03-12T06:51:59.665Z,2.11
2019-03-12T06:55:12.296Z,2.14
2019-03-12T06:58:22.286Z,2.14
2019-03-12T07:01:27.608Z,2.14
2019-03-12T07:04:27.482Z,2.29
2019-03-12T07:07:34.129Z,2.31
2019-03-12T07:10:49.512Z,2.49
2019-03-12T07:14:05.831Z,2.47
2019-03-12T07:17:03.658Z,2.45
2019-03-12T07:20:19.554Z,2.68
2019-03-12T07:23:35.675Z,2.64
2019-03-12T07:26:51.533Z,3.13
2019-03-12T07:30:01.136Z,2.94
2019-03-12T07:33:01.100Z,2.89
2019-03-12T07:36:11.293Z,3.02
2019-03-12T07:39:09.342Z,2.88
2019-03-12T07:42:16.747Z,2.90
2019-03-12T07:45:19.267Z,2.78
2019-03-12T07:48:26.080Z,2.75
2019-03-12T07:51:42.206Z,3.01
2019-03-12T07:54:47.561Z,3.09
2019-03-12T07:57:57.324Z,3.13
2019-03-12T08:01:11.975Z,3.09
2019-03-12T08:04:14.798Z,3.00
2019-03-12T08:07:20.400Z,2.89
2019-03-12T08:10:17.243Z,2.88
2019-03-12T08:13:10.851Z,2.99
2019-03-12T08:16:18.120Z,3.16
2019-03-12T08:19:17.951Z,2.92
2019-03-12T08:22:28.155Z,2.95
2019-03-12T08:25:44.175Z,3.11
2019-03-12T08:28:54.316Z,3.04
2019-03-12T08:31:58.226Z,2.97
2019-03-12T08:35:03.675Z,2.90
2019-03-12T08:38:00.128Z,3.07
2019-03-12T08:40:55.822Z,3.18
2019-03-12T08:44:08.889Z,2.89
2019-03-12T08:47:11.669Z,2.86
2019-03-12T08:50:18.691Z,2.85
2019-03-12T08:53:25.519Z,2.72
2019-03-12T08:56:32.751Z,2.68
2019-03-12T08:59:45.012Z,2.73
2019-03-12T09:02:57.899Z,2.57
2019-03-12T09:06:03.447Z,2.78
2019-03-12T09:09:08.597Z,2.86
2019-03-12T09:12:21.825Z,2.90
2019-03-12T09:15:23.794Z,2.82
2019-03-12T09:18:29.383Z,2.67
2019-03-12T09:21:34.743Z,2.62
2019-03-12T09:24:41.767Z,2.86
2019-03-12T09:27:57.763Z,2.86
2019-03-12T09:31:03.251Z,2.93
2019-03-12T09:34:10.277Z,3.39
2019-03-12T09:37:19.689Z,3.56
2019-03-12T09:40:27.794Z,3.61
2019-03-12T09:43:33.623Z,3.52
2019-03-12T09:46:46.957Z,3.39
2019-03-12T09:49:45.799Z,3.31
2019-03-12T09:52:51.935Z,3.41
2019-03-12T09:55:57.883Z,3.38
2019-03-12T09:59:02.220Z,3.40
2019-03-12T10:02:12.413Z,3.59
2019-03-12T10:05:09.825Z,3.67
2019-03-12T10:08:26.453Z,3.74
2019-03-12T10:11:21.420Z,3.82
2019-03-12T10:14:31.158Z,3.85
2019-03-12T10:17:36.635Z,3.73
2019-03-12T10:20:43.811Z,3.53
2019-03-12T10:23:52.361Z,3.67
2019-03-12T10:26:59.350Z,4.18
2019-03-12T10:29:52.925Z,4.45
2019-03-12T10:32:52.880Z,4.25
2019-03-12T10:35:53.836Z,4.13
2019-03-12T10:39:19.255Z,4.01
2019-03-12T10:42:17.967Z,3.63
2019-03-12T10:45:11.838Z,3.42
2019-03-12T10:48:00.168Z,3.36
2019-03-12T10:50:48.318Z,3.60
2019-03-12T10:53:36.139Z,3.65
2019-03-12T10:56:24.868Z,3.73
2019-03-12T10:59:12.560Z,3.58
2019-03-12T11:02:00.364Z,3.69
2019-03-12T11:04:48.233Z,4.02
2019-03-12T11:07:36.596Z,4.34
2019-03-12T11:10:25.123Z,4.45
2019-03-12T11:13:14.807Z,4.55
2019-03-12T11:16:03.440Z,4.44
2019-03-12T11:18:51.526Z,3.78
2019-03-12T11:21:39.955Z,3.30
2019-03-12T11:24:28.348Z,3.73
2019-03-12T11:27:16.799Z,3.85
2019-03-12T11:30:05.600Z,4.03
2019-03-12T11:32:53.711Z,4.06
2019-03-12T11:35:42.107Z,4.07
2019-03-12T11:38:30.749Z,4.01
2019-03-12T11:41:18.724Z,3.70
2019-03-12T11:44:06.809Z,3.69
2019-03-12T11:46:55.253Z,3.50
2019-03-12T11:49:43.051Z,3.77
2019-03-12T11:52:31.218Z,4.02
2019-03-12T11:55:18.905Z,4.26
2019-03-12T11:58:07.343Z,4.54
2019-03-12T12:01:05.917Z,4.52
2019-03-12T12:03:54.671Z,4.71
2019-03-12T12:06:43.648Z,4.82
2019-03-12T12:09:31.510Z,4.91
2019-03-12T12:12:20.011Z,4.95
2019-03-12T12:15:08.106Z,4.72
2019-03-12T12:17:56.085Z,4.70
2019-03-12T12:20:44.250Z,4.84
2019-03-12T12:23:32.739Z,5.12
2019-03-12T12:26:22.503Z,5.22
2019-03-12T12:29:12.035Z,4.82
2019-03-12T12:32:01.301Z,5.10
2019-03-12T12:34:50.711Z,5.26
2019-03-12T12:37:39.577Z,5.38
2019-03-12T12:40:29.156Z,4.85
2019-03-12T12:43:17.387Z,4.69
2019-03-12T12:46:05.783Z,4.70
2019-03-12T12:48:53.780Z,4.67
2019-03-12T12:51:42.349Z,4.61
2019-03-12T12:54:30.584Z,4.66
2019-03-12T12:57:18.654Z,4.79
2019-03-12T13:00:07.879Z,4.67
2019-03-12T13:02:56.205Z,4.42
2019-03-12T13:05:44.814Z,4.46
2019-03-12T13:08:32.853Z,4.38
2019-03-12T13:11:21.377Z,4.08
2019-03-12T13:14:09.428Z,4.32
2019-03-12T13:16:57.634Z,4.46
2019-03-12T13:19:46.321Z,4.45
2019-03-12T13:22:35.002Z,4.54
2019-03-12T13:25:23.399Z,4.56
2019-03-12T13:28:11.866Z,4.57
2019-03-12T13:30:59.755Z,4.49
2019-03-12T13:33:47.895Z,4.54
2019-03-12T13:36:35.998Z,4.45
2019-03-12T13:39:24.053Z,4.51
2019-03-12T13:42:18.117Z,4.91
2019-03-12T13:45:06.097Z,4.61
2019-03-12T13:47:57.252Z,4.85
2019-03-12T13:50:45.556Z,5.01
2019-03-12T13:53:33.618Z,5.09
2019-03-12T13:56:21.340Z,5.14
2019-03-12T13:59:09.723Z,5.20
2019-03-12T14:01:57.938Z,5.29
2019-03-12T14:04:46.055Z,5.32
2019-03-12T14:07:34.260Z,5.23
2019-03-12T14:10:22.666Z,5.24
2019-03-12T14:13:11.358Z,5.05
2019-03-12T14:15:59.656Z,4.94
2019-03-12T14:18:48.120Z,4.96
2019-03-12T14:21:41.111Z,4.90
2019-03-12T14:24:29.117Z,4.77
2019-03-12T14:27:17.952Z,4.72
2019-03-12T14:30:05.839Z,4.71
2019-03-12T14:32:54.530Z,4.63
2019-03-12T14:35:51.343Z,4.55
2019-03-12T14:38:32.055Z,4.56
2019-03-12T14:41:20.232Z,4.30
2019-03-12T14:44:08.472Z,4.35
2019-03-12T14:46:57.030Z,4.39
2019-03-12T14:49:45.545Z,4.52
2019-03-12T14:52:35.895Z,4.42
2019-03-12T14:55:24.552Z,4.41
2019-03-12T14:58:13.046Z,4.35
2019-03-12T15:01:01.248Z,4.45
2019-03-12T15:03:49.988Z,4.20
2019-03-12T15:06:38.764Z,4.36
2019-03-12T15:09:26.728Z,4.40
2019-03-12T15:12:15.188Z,4.29
2019-03-12T15:15:03.785Z,4.28
2019-03-12T15:17:51.927Z,4.35
2019-03-12T15:20:40.366Z,4.36
2019-03-12T15:23:28.560Z,4.18
2019-03-12T15:26:16.998Z,4.08
2019-03-12T15:29:05.429Z,4.07
2019-03-12T15:32:03.421Z,4.14
2019-03-12T15:34:49.069Z,4.11
2019-03-12T15:37:37.103Z,4.25
2019-03-12T15:40:25.611Z,4.49
2019-03-12T15:43:14.224Z,4.39
2019-03-12T15:46:02.302Z,4.43
2019-03-12T15:48:50.332Z,4.39
2019-03-12T15:51:38.730Z,4.20
2019-03-12T15:54:27.240Z,4.15
2019-03-12T15:57:15.588Z,4.22
2019-03-12T16:00:03.996Z,4.06
2019-03-12T16:02:52.305Z,3.90
2019-03-12T16:05:40.535Z,3.76
2019-03-12T16:08:28.885Z,3.80
2019-03-12T16:11:17.055Z,3.79
2019-03-12T16:14:05.395Z,3.92
2019-03-12T16:16:53.921Z,3.80
2019-03-12T16:19:42.104Z,3.78
2019-03-12T16:22:30.428Z,3.94
2019-03-12T16:25:18.899Z,3.93
2019-03-12T16:28:07.256Z,3.95
2019-03-12T16:30:55.729Z,3.94
2019-03-12T16:33:44.105Z,4.05
2019-03-12T16:36:32.077Z,4.09
2019-03-12T16:39:20.108Z,3.82
2019-03-12T16:42:08.704Z,3.63
2019-03-12T16:44:56.804Z,3.43
2019-03-12T16:47:45.208Z,3.46
2019-03-12T16:50:33.328Z,3.52
2019-03-12T16:53:20.963Z,3.57
2019-03-12T16:56:09.464Z,3.55
2019-03-12T16:58:57.896Z,3.46
2019-03-12T17:01:46.318Z,3.43
2019-03-12T17:04:34.731Z,3.12
2019-03-12T17:07:23.222Z,3.08
2019-03-12T17:10:11.282Z,2.77
2019-03-12T17:12:58.754Z,2.78
2019-03-12T17:15:47.059Z,2.63
2019-03-12T17:18:35.036Z,2.63
2019-03-12T17:21:23.396Z,2.56
2019-03-12T17:24:11.575Z,2.46
2019-03-12T17:26:59.999Z,2.48
2019-03-12T17:29:48.235Z,2.64
2019-03-12T17:32:36.380Z,2.58
2019-03-12T17:35:28.755Z,2.49
2019-03-12T17:38:16.806Z,2.53
2019-03-12T17:41:05.281Z,2.61
2019-03-12T17:43:53.285Z,2.70
2019-03-12T17:46:41.456Z,2.86
2019-03-12T17:49:30.177Z,2.90
2019-03-12T17:52:18.574Z,2.78
2019-03-12T17:55:07.073Z,2.65
2019-03-12T17:57:55.345Z,2.71
2019-03-12T18:00:44.499Z,2.56
2019-03-12T18:03:32.222Z,2.54
2019-03-12T18:06:20.634Z,2.40
2019-03-12T18:09:08.910Z,2.25
2019-03-12T18:11:56.757Z,2.53
2019-03-12T18:14:45.242Z,2.77
2019-03-12T18:17:33.672Z,2.80
2019-03-12T18:20:22.149Z,2.86
2019-03-12T18:23:10.471Z,2.73
2019-03-12T18:25:59.071Z,2.55
2019-03-12T18:28:47.209Z,2.42
2019-03-12T18:31:35.916Z,2.50
2019-03-12T18:34:23.923Z,2.33
2019-03-12T18:37:12.037Z,2.33
2019-03-12T18:40:00.407Z,2.13
2019-03-12T18:42:51.636Z,2.14
2019-03-12T18:45:39.618Z,2.06
2019-03-12T18:48:28.086Z,2.11
2019-03-12T18:51:15.885Z,2.11
2019-03-12T18:54:04.025Z,2.22
2019-03-12T18:56:52.231Z,2.32
2019-03-12T18:59:40.702Z,2.17
2019-03-12T19:02:28.909Z,2.27
2019-03-12T19:05:16.635Z,2.12
2019-03-12T19:08:05.060Z,1.96
2019-03-12T19:10:53.092Z,1.87
2019-03-12T19:13:41.764Z,1.98
2019-03-12T19:16:30.208Z,2.12
2019-03-12T19:19:18.852Z,2.00
2019-03-12T19:22:06.984Z,1.92
2019-03-12T19:24:56.135Z,1.98
2019-03-12T19:27:44.010Z,2.07
2019-03-12T19:30:33.009Z,2.18
2019-03-12T19:33:22.409Z,2.22
2019-03-12T19:36:10.587Z,2.22
2019-03-12T19:38:59.030Z,2.39
2019-03-12T19:41:47.507Z,2.42
2019-03-12T19:44:35.647Z,2.46
2019-03-12T19:47:23.740Z,2.55
2019-03-12T19:50:13.156Z,2.47
2019-03-12T19:53:00.993Z,2.41
2019-03-12T19:55:49.373Z,2.36
2019-03-12T19:58:37.536Z,2.38
2019-03-12T20:01:29.179Z,2.32
2019-03-12T20:04:17.152Z,2.41
2019-03-12T20:07:05.305Z,2.51
2019-03-12T20:10:11.240Z,2.54
2019-03-12T20:13:10.643Z,2.57
2019-03-12T20:16:21.286Z,2.40
2019-03-12T20:19:27.725Z,2.65
2019-03-12T20:22:34.779Z,2.70
2019-03-12T20:25:51.480Z,2.44
2019-03-12T20:29:02.088Z,2.76
2019-03-12T20:32:08.222Z,2.91
2019-03-12T20:35:30.994Z,3.13
2019-03-12T20:38:38.100Z,2.63
2019-03-12T20:41:44.083Z,2.63
2019-03-12T20:45:00.780Z,2.69
2019-03-12T20:48:13.709Z,2.81
2019-03-12T20:51:28.928Z,2.88
2019-03-12T20:54:38.890Z,2.62
2019-03-12T20:57:45.997Z,2.59
2019-03-12T21:01:12.279Z,2.58
2019-03-12T21:04:19.412Z,2.75
2019-03-12T21:07:25.259Z,2.85
2019-03-12T21:10:31.891Z,2.87
2019-03-12T21:13:38.786Z,2.86
2019-03-12T21:16:44.952Z,2.76
2019-03-12T21:19:53.751Z,2.85
2019-03-12T21:23:13.500Z,2.96
2019-03-12T21:26:06.905Z,2.89
2019-03-12T21:29:13.990Z,2.85
2019-03-12T21:32:01.848Z,2.88
2019-03-12T21:34:50.517Z,2.80
2019-03-12T21:37:38.975Z,2.56
2019-03-12T21:40:26.643Z,2.51
2019-03-12T21:43:14.110Z,2.65
2019-03-12T21:46:02.158Z,2.70
2019-03-12T21:48:50.662Z,2.83
2019-03-12T21:51:39.100Z,2.85
2019-03-12T21:54:27.376Z,2.87
2019-03-12T21:57:15.408Z,2.77
2019-03-12T22:00:03.592Z,2.86
2019-03-12T22:02:51.674Z,2.83
2019-03-12T22:05:41.152Z,2.94
2019-03-12T22:08:29.216Z,2.98
2019-03-12T22:11:17.715Z,2.88
2019-03-12T22:14:06.236Z,2.90
2019-03-12T22:16:57.391Z,2.74
2019-03-12T22:19:44.874Z,2.66
2019-03-12T22:22:43.612Z,2.68
2019-03-12T22:25:31.568Z,2.75
2019-03-12T22:28:19.900Z,2.71
2019-03-12T22:31:07.591Z,2.85
2019-03-12T22:33:56.110Z,2.92
2019-03-12T22:36:43.895Z,2.93
2019-03-12T22:39:32.267Z,2.95
2019-03-12T22:42:20.016Z,2.99
2019-03-12T22:45:08.622Z,2.87
2019-03-12T22:47:56.524Z,2.88
2019-03-12T22:50:44.349Z,2.86
2019-03-12T22:53:32.812Z,2.83
2019-03-12T22:56:21.194Z,2.47
2019-03-12T22:59:09.659Z,2.42
2019-03-12T23:01:58.011Z,2.38
2019-03-12T23:04:46.355Z,2.33
2019-03-12T23:07:35.674Z,2.44
2019-03-12T23:10:24.353Z,2.47
2019-03-12T23:13:12.363Z,2.44
2019-03-12T23:16:00.825Z,2.44
2019-03-12T23:18:48.975Z,2.51
2019-03-12T23:21:37.411Z,2.45
2019-03-12T23:24:25.876Z,2.52
2019-03-12T23:27:13.944Z,2.10
2019-03-12T23:30:01.982Z,1.83
2019-03-12T23:32:50.396Z,1.98
2019-03-12T23:35:38.650Z,2.15
2019-03-12T23:38:27.035Z,2.22
2019-03-12T23:41:15.439Z,2.33
2019-03-12T23:44:03.214Z,2.41
2019-03-12T23:46:51.612Z,2.41
2019-03-12T23:49:39.829Z,2.30
2019-03-12T23:52:28.248Z,2.28
2019-03-12T23:55:17.972Z,2.21
2019-03-12T23:58:05.468Z,2.24
